Bookmark and Share
Track history (hours):
 

Nautilus

Last reported at 2014-Apr-23 23:32 UTC. Time now 2014-Apr-24 00:11 UTC.
Position N 51°47' E 004°38'.

Length 120 m; draft 7 m.

Type: Ship. MMSI: 219425000.

NotesDate/timePositionNaut miles runAvg speedWind from/ knotsBaromVisibWave heightAir tempDewpointWater temp
2014-Apr-23 23:32N 51°47' E 004°38'0 0.0
2014-Apr-23 22:32N 51°47' E 004°38'0 0.0
2014-Apr-23 21:32N 51°47' E 004°38'0 0.0
2014-Apr-23 20:32N 51°47' E 004°38'0 0.0
2014-Apr-23 19:32N 51°47' E 004°38'0 0.0
2014-Apr-23 18:32N 51°47' E 004°38'0 0.0
2014-Apr-23 17:32N 51°47' E 004°38'0 0.0
2014-Apr-23 16:32N 51°47' E 004°38'0 0.0
2014-Apr-23 15:32N 51°47' E 004°38'0 0.0
2014-Apr-23 14:32N 51°47' E 004°38'0 0.0
2014-Apr-23 13:32N 51°47' E 004°38'0 0.0
2014-Apr-23 12:32N 51°47' E 004°38'0 0.0
2014-Apr-23 11:32N 51°47' E 004°38'0 0.0
2014-Apr-23 10:32N 51°47' E 004°38'0 0.0
2014-Apr-23 09:29N 51°47' E 004°38'0 0.0
2014-Apr-23 08:29N 51°47' E 004°38'0 0.0
2014-Apr-23 07:29N 51°47' E 004°38'0 0.0
2014-Apr-23 06:32N 51°47' E 004°38'0 0.0
2014-Apr-23 05:29N 51°47' E 004°38'0 0.0
2014-Apr-23 04:32N 51°47' E 004°38'0 0.0
2014-Apr-23 03:32N 51°47' E 004°38'0 0.0
2014-Apr-23 02:32N 51°47' E 004°38'0 0.0
2014-Apr-23 01:32N 51°47' E 004°38'0 0.0
2014-Apr-23 00:32N 51°47' E 004°38'0 0.0
2014-Apr-22 23:32N 51°47' E 004°38'0 0.0
2014-Apr-22 22:29N 51°47' E 004°38'0 0.0
2014-Apr-22 21:32N 51°47' E 004°38'0 0.0
2014-Apr-22 20:32N 51°47' E 004°38'0 0.0
2014-Apr-22 19:32N 51°47' E 004°38'0 0.0
2014-Apr-22 18:32N 51°47' E 004°38'0 0.0
2014-Apr-22 17:32N 51°47' E 004°38'0 0.0
2014-Apr-22 16:32N 51°47' E 004°38'0 0.0
2014-Apr-22 15:32N 51°47' E 004°38'0 0.0
2014-Apr-22 14:32N 51°47' E 004°38'0 0.0
2014-Apr-22 13:33N 51°47' E 004°38'2 2.0
2014-Apr-22 12:33N 51°48' E 004°35'8 8.1
2014-Apr-22 11:33N 51°51' E 004°23'8 8.1
2014-Apr-22 10:33N 51°56' E 004°13'1111.4
2014-Apr-22 09:33N 52°00' E 003°56'9 8.7
2014-Apr-22 08:33N 52°07' E 003°46'1110.9
2014-Apr-22 07:33N 52°18' E 003°48'1110.8
2014-Apr-22 06:33N 52°28' E 003°51'1111.3
2014-Apr-22 05:33N 52°39' E 003°54'1212.2
2014-Apr-22 04:33N 52°51' E 003°58'1212.1
2014-Apr-22 03:33N 53°02' E 004°08'1313.0
2014-Apr-22 02:33N 53°11' E 004°24'1312.8
2014-Apr-22 01:32N 53°22' E 004°33'1111.2
2014-Apr-22 00:33N 53°30' E 004°46'1111.3
2014-Apr-21 23:33N 53°35' E 005°04'1111.0
2014-Apr-21 22:33N 53°39' E 005°21'1111.3
2014-Apr-21 21:33N 53°42' E 005°39'1212.0
2014-Apr-21 20:33N 53°46' E 005°59'1413.1
2014-Apr-21 19:32N 53°50' E 006°20'3213.4
2014-Apr-21 17:08N 53°58' E 007°13'712.7
2014-Apr-21 16:33N 53°59' E 007°25'1212.0
2014-Apr-21 15:33N 54°02' E 007°45'1211.6
2014-Apr-21 14:33N 54°01' E 008°05'1111.3
2014-Apr-21 13:33N 53°59' E 008°24'1010.2
2014-Apr-21 12:33N 53°56' E 008°40'1211.5
2014-Apr-21 11:34N 53°51' E 008°58'7 6.9
2014-Apr-21 10:33N 53°54' E 009°09'6 5.9
2014-Apr-21 09:34N 53°58' E 009°15'8 8.4
2014-Apr-21 08:33N 54°06' E 009°20'8 7.8
2014-Apr-21 07:34N 54°11' E 009°30'9 7.8
2014-Apr-21 06:23N 54°18' E 009°41'51 5.2
2014-Apr-20 20:30N 54°36' E 011°03'1313.6
2014-Apr-20 19:34N 54°32' E 011°24'1413.7
2014-Apr-20 18:33N 54°26' E 011°45'1313.2
2014-Apr-20 17:34N 54°27' E 012°08'1212.4
2014-Apr-20 16:33N 54°38' E 012°18'1212.2
2014-Apr-20 15:34N 54°45' E 012°36'1211.6
2014-Apr-20 14:33N 54°47' E 012°56'1312.5
2014-Apr-20 13:33N 54°46' E 013°17'1212.4
2014-Apr-20 12:33N 54°45' E 013°39'1212.3
2014-Apr-20 11:33N 54°42' E 013°59'1212.5
2014-Apr-20 10:33N 54°38' E 014°20'1212.3
2014-Apr-20 09:33N 54°39' E 014°41'9412.6
2014-Apr-20 02:07N 54°55' E 017°21'712.6
2014-Apr-20 01:33N 54°57' E 017°33'1212.4
2014-Apr-20 00:33N 55°02' E 017°53'1312.5
2014-Apr-19 23:33N 55°07' E 018°13'1212.4
2014-Apr-19 22:34N 55°12' E 018°33'1312.5
2014-Apr-19 21:33N 55°17' E 018°54'  
2014-Apr-17 14:33N 55°37' E 018°50'9213.2
2014-Apr-17 07:33N 55°28' E 016°08'1313.2
2014-Apr-17 06:33N 55°27' E 015°45'1413.5
2014-Apr-17 05:33N 55°25' E 015°21'1413.6
2014-Apr-17 04:33N 55°24' E 014°57'1312.6
2014-Apr-17 03:33N 55°20' E 014°36'1313.4
2014-Apr-17 02:34N 55°10' E 014°20'1312.9
2014-Apr-17 01:34N 55°10' E 013°58'1312.9
2014-Apr-17 00:34N 55°10' E 013°35'1313.0
2014-Apr-16 23:34N 55°12' E 013°13'1313.4
2014-Apr-16 22:34N 55°16' E 012°50'10 9.8
2014-Apr-16 21:34N 55°23' E 012°39'1212.2
2014-Apr-16 20:34N 55°35' E 012°42'1212.1
2014-Apr-16 19:34N 55°47' E 012°42'1312.7
2014-Apr-16 18:34N 56°00' E 012°40'1312.6
2014-Apr-16 17:33N 56°10' E 012°26'1313.2
2014-Apr-16 16:33N 56°23' E 012°19'1413.3
2014-Apr-16 15:32N 56°36' E 012°12'1313.1
2014-Apr-16 14:33N 56°48' E 012°06'1312.9
2014-Apr-16 13:31N 57°01' E 011°59'1212.6
2014-Apr-16 12:33N 57°12' E 011°52'1312.7
2014-Apr-16 11:33N 57°24' E 011°43'1211.6
2014-Apr-16 10:33N 57°36' E 011°41'0 0.1
2014-Apr-16 09:33N 57°36' E 011°41'0 0.0
2014-Apr-16 08:33N 57°36' E 011°41'7 7.3
2014-Apr-16 07:33N 57°40' E 011°29'1413.7
2014-Apr-16 06:33N 57°53' E 011°20'1313.2
2014-Apr-16 05:33N 58°05' E 011°11'1312.8
2014-Apr-16 04:32N 58°17' E 011°03'1313.1
2014-Apr-16 03:33N 58°29' E 010°54'1313.2
2014-Apr-16 02:33N 58°42' E 010°47'1313.3
2014-Apr-16 01:33N 58°55' E 010°40'1512.8
2014-Apr-16 00:25N 59°09' E 010°36'1111.3
2014-Apr-15 23:28N 59°20' E 010°31'0 0.0
2014-Apr-15 19:31N 59°20' E 010°31'5 0.3
2014-Apr-15 03:32N 59°15' E 010°35'7310.4
2014-Apr-14 20:34N 58°04' E 011°07'1110.5
2014-Apr-14 19:34N 57°54' E 011°13'1010.1
2014-Apr-14 18:34N 57°44' E 011°19'10 9.7
2014-Apr-14 17:34N 57°35' E 011°25'10 9.9
2014-Apr-14 16:34N 57°27' E 011°36'1010.1
2014-Apr-14 15:33N 57°19' E 011°47'1010.0
2014-Apr-14 14:33N 57°10' E 011°56'1010.0
2014-Apr-14 13:34N 57°01' E 012°01'2110.1
2014-Apr-14 11:30N 56°41' E 012°12'1010.3
2014-Apr-14 10:33N 56°31' E 012°17'1111.5
2014-Apr-14 09:34N 56°20' E 012°23'1211.8
2014-Apr-14 08:33N 56°09' E 012°31'1010.3
2014-Apr-14 07:34N 56°01' E 012°41'1110.7
2014-Apr-14 06:34N 55°50' E 012°43'1111.0
2014-Apr-14 05:34N 55°39' E 012°42'  

Dump ship's entire track history

sailing weather and tide predictions

Nautilus — OUYX2 — position and weather